sensor_id;sensor_type;location;lat;lon;timestamp;P1;durP1;ratioP1;P2;durP2;ratioP2
14139;SDS011;7150;53.514;9.988;2022-12-10T00:01:10;35.67;;;15.93;;
14139;SDS011;7150;53.514;9.988;2022-12-10T00:03:44;30.80;;;14.50;;
14139;SDS011;7150;53.514;9.988;2022-12-10T00:06:11;34.80;;;14.53;;
14139;SDS011;7150;53.514;9.988;2022-12-10T00:08:39;33.65;;;14.07;;
14139;SDS011;7150;53.514;9.988;2022-12-10T00:11:05;36.37;;;15.63;;
14139;SDS011;7150;53.514;9.988;2022-12-10T00:13:33;34.50;;;13.77;;
14139;SDS011;7150;53.514;9.988;2022-12-10T00:16:00;33.13;;;15.17;;
14139;SDS011;7150;53.514;9.988;2022-12-10T00:18:26;34.05;;;14.85;;
14139;SDS011;7150;53.514;9.988;2022-12-10T00:20:52;31.77;;;13.50;;
14139;SDS011;7150;53.514;9.988;2022-12-10T00:23:18;33.67;;;14.77;;
14139;SDS011;7150;53.514;9.988;2022-12-10T00:25:43;32.60;;;14.23;;
14139;SDS011;7150;53.514;9.988;2022-12-10T00:28:09;31.90;;;13.87;;
14139;SDS011;7150;53.514;9.988;2022-12-10T00:30:34;31.33;;;14.07;;
14139;SDS011;7150;53.514;9.988;2022-12-10T00:33:00;31.60;;;13.37;;
14139;SDS011;7150;53.514;9.988;2022-12-10T00:35:25;31.73;;;14.30;;
14139;SDS011;7150;53.514;9.988;2022-12-10T00:37:51;30.50;;;13.20;;
14139;SDS011;7150;53.514;9.988;2022-12-10T00:40:16;33.40;;;14.07;;
14139;SDS011;7150;53.514;9.988;2022-12-10T00:42:42;32.80;;;13.80;;
14139;SDS011;7150;53.514;9.988;2022-12-10T00:45:07;30.93;;;13.93;;
14139;SDS011;7150;53.514;9.988;2022-12-10T00:47:33;30.40;;;12.77;;
14139;SDS011;7150;53.514;9.988;2022-12-10T00:49:59;33.27;;;13.77;;
14139;SDS011;7150;53.514;9.988;2022-12-10T00:52:24;27.30;;;13.23;;
14139;SDS011;7150;53.514;9.988;2022-12-10T00:54:50;29.30;;;12.10;;
14139;SDS011;7150;53.514;9.988;2022-12-10T00:57:15;27.80;;;12.97;;
14139;SDS011;7150;53.514;9.988;2022-12-10T00:59:41;26.07;;;11.80;;
14139;SDS011;7150;53.514;9.988;2022-12-10T01:02:06;27.10;;;12.50;;
14139;SDS011;7150;53.514;9.988;2022-12-10T01:04:32;29.80;;;13.03;;
14139;SDS011;7150;53.514;9.988;2022-12-10T01:06:57;23.13;;;11.80;;
14139;SDS011;7150;53.514;9.988;2022-12-10T01:09:25;28.75;;;12.88;;
14139;SDS011;7150;53.514;9.988;2022-12-10T01:11:53;24.90;;;11.45;;
14139;SDS011;7150;53.514;9.988;2022-12-10T01:14:21;26.23;;;12.30;;
14139;SDS011;7150;53.514;9.988;2022-12-10T01:16:49;21.73;;;10.57;;
14139;SDS011;7150;53.514;9.988;2022-12-10T01:19:15;24.58;;;11.98;;
14139;SDS011;7150;53.514;9.988;2022-12-10T01:21:41;27.93;;;11.83;;
14139;SDS011;7150;53.514;9.988;2022-12-10T01:24:06;27.77;;;11.67;;
14139;SDS011;7150;53.514;9.988;2022-12-10T01:26:33;25.53;;;11.67;;
14139;SDS011;7150;53.514;9.988;2022-12-10T01:28:59;25.73;;;11.18;;
14139;SDS011;7150;53.514;9.988;2022-12-10T01:31:26;22.23;;;10.37;;
14139;SDS011;7150;53.514;9.988;2022-12-10T01:33:53;22.53;;;10.57;;
14139;SDS011;7150;53.514;9.988;2022-12-10T01:36:20;25.30;;;10.73;;
14139;SDS011;7150;53.514;9.988;2022-12-10T01:38:47;24.50;;;10.63;;
14139;SDS011;7150;53.514;9.988;2022-12-10T01:41:15;23.47;;;10.23;;
14139;SDS011;7150;53.514;9.988;2022-12-10T01:46:16;22.93;;;9.73;;
14139;SDS011;7150;53.514;9.988;2022-12-10T01:48:42;22.53;;;10.47;;
14139;SDS011;7150;53.514;9.988;2022-12-10T01:51:08;20.30;;;10.20;;
14139;SDS011;7150;53.514;9.988;2022-12-10T01:53:34;22.57;;;10.23;;
14139;SDS011;7150;53.514;9.988;2022-12-10T01:56:00;20.93;;;10.57;;
14139;SDS011;7150;53.514;9.988;2022-12-10T01:58:25;19.07;;;9.53;;
14139;SDS011;7150;53.514;9.988;2022-12-10T02:00:55;23.03;;;10.20;;
14139;SDS011;7150;53.514;9.988;2022-12-10T02:03:38;22.87;;;11.37;;
14139;SDS011;7150;53.514;9.988;2022-12-10T02:06:31;24.13;;;10.65;;
14139;SDS011;7150;53.514;9.988;2022-12-10T02:17:38;21.38;;;10.23;;
14139;SDS011;7150;53.514;9.988;2022-12-10T02:20:11;24.20;;;11.07;;
14139;SDS011;7150;53.514;9.988;2022-12-10T02:22:44;23.52;;;10.25;;
14139;SDS011;7150;53.514;9.988;2022-12-10T02:25:13;24.40;;;9.93;;
14139;SDS011;7150;53.514;9.988;2022-12-10T02:27:44;18.98;;;9.38;;
14139;SDS011;7150;53.514;9.988;2022-12-10T02:30:17;25.93;;;10.67;;
14139;SDS011;7150;53.514;9.988;2022-12-10T02:32:43;20.77;;;8.97;;
14139;SDS011;7150;53.514;9.988;2022-12-10T02:35:14;24.57;;;10.70;;
14139;SDS011;7150;53.514;9.988;2022-12-10T02:37:47;21.70;;;9.57;;
14139;SDS011;7150;53.514;9.988;2022-12-10T02:40:18;23.88;;;9.80;;
14139;SDS011;7150;53.514;9.988;2022-12-10T02:42:48;21.52;;;9.90;;
14139;SDS011;7150;53.514;9.988;2022-12-10T02:45:15;23.23;;;10.13;;
14139;SDS011;7150;53.514;9.988;2022-12-10T02:47:43;23.20;;;10.50;;
14139;SDS011;7150;53.514;9.988;2022-12-10T02:50:10;23.05;;;10.35;;
14139;SDS011;7150;53.514;9.988;2022-12-10T02:52:37;21.83;;;9.90;;
14139;SDS011;7150;53.514;9.988;2022-12-10T02:55:03;25.73;;;10.67;;
14139;SDS011;7150;53.514;9.988;2022-12-10T03:07:51;21.97;;;9.00;;
14139;SDS011;7150;53.514;9.988;2022-12-10T03:10:52;23.20;;;10.48;;
14139;SDS011;7150;53.514;9.988;2022-12-10T03:13:21;20.23;;;9.93;;
14139;SDS011;7150;53.514;9.988;2022-12-10T03:15:52;22.90;;;10.57;;
14139;SDS011;7150;53.514;9.988;2022-12-10T03:18:19;26.03;;;11.07;;
14139;SDS011;7150;53.514;9.988;2022-12-10T03:20:48;21.90;;;9.90;;
14139;SDS011;7150;53.514;9.988;2022-12-10T03:23:16;24.03;;;10.90;;
14139;SDS011;7150;53.514;9.988;2022-12-10T03:25:44;24.37;;;10.87;;
14139;SDS011;7150;53.514;9.988;2022-12-10T03:28:12;25.17;;;10.97;;
14139;SDS011;7150;53.514;9.988;2022-12-10T03:30:39;24.73;;;9.53;;
14139;SDS011;7150;53.514;9.988;2022-12-10T03:33:07;21.77;;;10.13;;
14139;SDS011;7150;53.514;9.988;2022-12-10T03:35:33;21.13;;;9.90;;
14139;SDS011;7150;53.514;9.988;2022-12-10T03:37:59;18.83;;;9.17;;
14139;SDS011;7150;53.514;9.988;2022-12-10T03:40:26;23.20;;;9.43;;
14139;SDS011;7150;53.514;9.988;2022-12-10T03:42:51;20.83;;;9.90;;
14139;SDS011;7150;53.514;9.988;2022-12-10T03:45:17;19.97;;;9.60;;
14139;SDS011;7150;53.514;9.988;2022-12-10T03:47:42;20.97;;;9.47;;
14139;SDS011;7150;53.514;9.988;2022-12-10T03:50:09;16.10;;;8.47;;
14139;SDS011;7150;53.514;9.988;2022-12-10T03:52:35;20.70;;;8.87;;
14139;SDS011;7150;53.514;9.988;2022-12-10T03:55:01;20.53;;;9.20;;
14139;SDS011;7150;53.514;9.988;2022-12-10T03:57:27;17.37;;;8.83;;
14139;SDS011;7150;53.514;9.988;2022-12-10T03:59:52;17.33;;;8.43;;
14139;SDS011;7150;53.514;9.988;2022-12-10T04:02:18;20.33;;;8.87;;
14139;SDS011;7150;53.514;9.988;2022-12-10T04:04:43;18.77;;;8.87;;
14139;SDS011;7150;53.514;9.988;2022-12-10T04:07:09;17.27;;;9.03;;
14139;SDS011;7150;53.514;9.988;2022-12-10T04:09:35;18.57;;;9.63;;
14139;SDS011;7150;53.514;9.988;2022-12-10T04:12:00;16.63;;;8.23;;
14139;SDS011;7150;53.514;9.988;2022-12-10T04:14:26;16.57;;;8.23;;
14139;SDS011;7150;53.514;9.988;2022-12-10T04:17:11;14.93;;;8.00;;
14139;SDS011;7150;53.514;9.988;2022-12-10T04:19:37;17.37;;;8.90;;
14139;SDS011;7150;53.514;9.988;2022-12-10T04:22:02;16.43;;;8.43;;
14139;SDS011;7150;53.514;9.988;2022-12-10T04:24:47;14.93;;;8.20;;
14139;SDS011;7150;53.514;9.988;2022-12-10T04:27:50;15.27;;;8.23;;
14139;SDS011;7150;53.514;9.988;2022-12-10T04:30:16;17.53;;;8.00;;
14139;SDS011;7150;53.514;9.988;2022-12-10T04:32:42;15.90;;;7.90;;
14139;SDS011;7150;53.514;9.988;2022-12-10T04:35:07;16.07;;;8.40;;
14139;SDS011;7150;53.514;9.988;2022-12-10T04:37:33;17.55;;;8.50;;
14139;SDS011;7150;53.514;9.988;2022-12-10T04:39:59;14.10;;;7.23;;
14139;SDS011;7150;53.514;9.988;2022-12-10T04:42:24;16.40;;;7.87;;
14139;SDS011;7150;53.514;9.988;2022-12-10T04:44:50;13.93;;;7.87;;
14139;SDS011;7150;53.514;9.988;2022-12-10T04:47:15;15.93;;;8.10;;
14139;SDS011;7150;53.514;9.988;2022-12-10T04:49:41;13.93;;;7.70;;
14139;SDS011;7150;53.514;9.988;2022-12-10T04:52:07;15.50;;;7.77;;
14139;SDS011;7150;53.514;9.988;2022-12-10T04:54:35;13.80;;;6.90;;
14139;SDS011;7150;53.514;9.988;2022-12-10T04:57:01;15.70;;;7.27;;
14139;SDS011;7150;53.514;9.988;2022-12-10T04:59:26;12.20;;;6.80;;
14139;SDS011;7150;53.514;9.988;2022-12-10T05:01:52;15.30;;;7.50;;
14139;SDS011;7150;53.514;9.988;2022-12-10T05:04:18;11.87;;;6.20;;
14139;SDS011;7150;53.514;9.988;2022-12-10T05:06:44;15.95;;;7.57;;
14139;SDS011;7150;53.514;9.988;2022-12-10T05:09:10;13.87;;;6.77;;
14139;SDS011;7150;53.514;9.988;2022-12-10T05:11:37;14.43;;;7.30;;
14139;SDS011;7150;53.514;9.988;2022-12-10T05:14:03;13.27;;;5.93;;
14139;SDS011;7150;53.514;9.988;2022-12-10T05:16:29;13.50;;;6.20;;
14139;SDS011;7150;53.514;9.988;2022-12-10T05:18:57;12.60;;;6.75;;
14139;SDS011;7150;53.514;9.988;2022-12-10T05:21:24;11.75;;;6.72;;
14139;SDS011;7150;53.514;9.988;2022-12-10T05:24:11;12.27;;;6.30;;
14139;SDS011;7150;53.514;9.988;2022-12-10T05:26:37;11.30;;;6.53;;
14139;SDS011;7150;53.514;9.988;2022-12-10T05:29:02;11.27;;;6.90;;
14139;SDS011;7150;53.514;9.988;2022-12-10T05:31:29;12.57;;;6.93;;
14139;SDS011;7150;53.514;9.988;2022-12-10T05:33:55;12.85;;;6.80;;
14139;SDS011;7150;53.514;9.988;2022-12-10T05:36:25;11.03;;;7.00;;
14139;SDS011;7150;53.514;9.988;2022-12-10T05:38:53;11.47;;;7.00;;
14139;SDS011;7150;53.514;9.988;2022-12-10T05:41:21;11.30;;;6.27;;
14139;SDS011;7150;53.514;9.988;2022-12-10T05:43:48;11.37;;;6.30;;
14139;SDS011;7150;53.514;9.988;2022-12-10T05:46:18;13.57;;;6.43;;
14139;SDS011;7150;53.514;9.988;2022-12-10T05:48:45;13.63;;;6.60;;
14139;SDS011;7150;53.514;9.988;2022-12-10T05:51:12;11.53;;;6.20;;
14139;SDS011;7150;53.514;9.988;2022-12-10T05:53:39;11.77;;;6.27;;
14139;SDS011;7150;53.514;9.988;2022-12-10T05:56:08;13.10;;;7.30;;
14139;SDS011;7150;53.514;9.988;2022-12-10T05:58:36;11.93;;;6.27;;
14139;SDS011;7150;53.514;9.988;2022-12-10T06:01:06;10.73;;;5.97;;
14139;SDS011;7150;53.514;9.988;2022-12-10T06:03:32;13.73;;;6.50;;
14139;SDS011;7150;53.514;9.988;2022-12-10T06:05:58;11.07;;;6.03;;
14139;SDS011;7150;53.514;9.988;2022-12-10T06:08:23;9.80;;;5.97;;
14139;SDS011;7150;53.514;9.988;2022-12-10T06:10:49;10.27;;;6.43;;
14139;SDS011;7150;53.514;9.988;2022-12-10T06:13:14;11.57;;;6.43;;
14139;SDS011;7150;53.514;9.988;2022-12-10T06:15:40;11.23;;;6.10;;
14139;SDS011;7150;53.514;9.988;2022-12-10T06:18:07;11.82;;;6.68;;
14139;SDS011;7150;53.514;9.988;2022-12-10T06:20:33;12.57;;;6.80;;
14139;SDS011;7150;53.514;9.988;2022-12-10T06:22:59;12.67;;;6.70;;
14139;SDS011;7150;53.514;9.988;2022-12-10T06:25:24;9.87;;;5.73;;
14139;SDS011;7150;53.514;9.988;2022-12-10T06:27:50;13.67;;;6.83;;
14139;SDS011;7150;53.514;9.988;2022-12-10T06:30:15;12.57;;;6.70;;
14139;SDS011;7150;53.514;9.988;2022-12-10T06:32:41;13.30;;;7.37;;
14139;SDS011;7150;53.514;9.988;2022-12-10T06:35:10;11.93;;;6.97;;
14139;SDS011;7150;53.514;9.988;2022-12-10T06:37:36;10.53;;;6.67;;
14139;SDS011;7150;53.514;9.988;2022-12-10T06:40:02;10.33;;;6.23;;
14139;SDS011;7150;53.514;9.988;2022-12-10T06:42:28;12.88;;;7.13;;
14139;SDS011;7150;53.514;9.988;2022-12-10T06:44:54;11.53;;;6.60;;
14139;SDS011;7150;53.514;9.988;2022-12-10T06:47:19;10.17;;;6.37;;
14139;SDS011;7150;53.514;9.988;2022-12-10T06:49:45;12.40;;;6.87;;
14139;SDS011;7150;53.514;9.988;2022-12-10T06:52:10;10.73;;;6.40;;
14139;SDS011;7150;53.514;9.988;2022-12-10T06:54:36;12.17;;;6.30;;
14139;SDS011;7150;53.514;9.988;2022-12-10T06:57:01;10.63;;;6.40;;
14139;SDS011;7150;53.514;9.988;2022-12-10T06:59:27;10.70;;;6.40;;
14139;SDS011;7150;53.514;9.988;2022-12-10T07:01:53;11.20;;;5.90;;
14139;SDS011;7150;53.514;9.988;2022-12-10T07:04:19;12.47;;;6.50;;
14139;SDS011;7150;53.514;9.988;2022-12-10T07:06:44;9.63;;;5.67;;
14139;SDS011;7150;53.514;9.988;2022-12-10T07:09:10;11.07;;;5.80;;
14139;SDS011;7150;53.514;9.988;2022-12-10T07:11:35;11.37;;;5.87;;
14139;SDS011;7150;53.514;9.988;2022-12-10T07:14:02;9.43;;;5.60;;
14139;SDS011;7150;53.514;9.988;2022-12-10T07:16:29;13.00;;;5.87;;
14139;SDS011;7150;53.514;9.988;2022-12-10T07:18:56;9.57;;;6.00;;
14139;SDS011;7150;53.514;9.988;2022-12-10T07:21:27;10.83;;;5.87;;
14139;SDS011;7150;53.514;9.988;2022-12-10T07:23:55;9.73;;;5.90;;
14139;SDS011;7150;53.514;9.988;2022-12-10T07:26:28;9.67;;;4.97;;
14139;SDS011;7150;53.514;9.988;2022-12-10T07:28:55;9.43;;;5.10;;
14139;SDS011;7150;53.514;9.988;2022-12-10T07:31:22;11.13;;;6.07;;
14139;SDS011;7150;53.514;9.988;2022-12-10T07:33:48;12.87;;;6.60;;
14139;SDS011;7150;53.514;9.988;2022-12-10T07:36:15;9.97;;;5.90;;
14139;SDS011;7150;53.514;9.988;2022-12-10T07:38:40;10.77;;;5.60;;
14139;SDS011;7150;53.514;9.988;2022-12-10T07:41:07;10.93;;;5.37;;
14139;SDS011;7150;53.514;9.988;2022-12-10T07:43:35;8.17;;;4.97;;
14139;SDS011;7150;53.514;9.988;2022-12-10T07:46:03;8.67;;;5.80;;
14139;SDS011;7150;53.514;9.988;2022-12-10T07:48:33;9.23;;;5.60;;
14139;SDS011;7150;53.514;9.988;2022-12-10T07:50:59;8.07;;;5.15;;
14139;SDS011;7150;53.514;9.988;2022-12-10T07:53:25;8.43;;;5.13;;
14139;SDS011;7150;53.514;9.988;2022-12-10T07:55:51;7.47;;;5.10;;
14139;SDS011;7150;53.514;9.988;2022-12-10T07:58:16;8.97;;;5.47;;
14139;SDS011;7150;53.514;9.988;2022-12-10T08:00:42;9.37;;;5.63;;
14139;SDS011;7150;53.514;9.988;2022-12-10T08:03:07;10.37;;;5.80;;
14139;SDS011;7150;53.514;9.988;2022-12-10T08:05:33;9.87;;;5.67;;
14139;SDS011;7150;53.514;9.988;2022-12-10T08:07:58;8.27;;;5.00;;
14139;SDS011;7150;53.514;9.988;2022-12-10T08:10:24;9.83;;;5.53;;
14139;SDS011;7150;53.514;9.988;2022-12-10T08:12:49;11.60;;;5.73;;
14139;SDS011;7150;53.514;9.988;2022-12-10T08:15:15;6.80;;;4.17;;
14139;SDS011;7150;53.514;9.988;2022-12-10T08:17:40;6.50;;;4.60;;
14139;SDS011;7150;53.514;9.988;2022-12-10T08:20:06;7.17;;;4.47;;
14139;SDS011;7150;53.514;9.988;2022-12-10T08:22:32;8.37;;;4.70;;
14139;SDS011;7150;53.514;9.988;2022-12-10T08:24:59;7.00;;;4.40;;
14139;SDS011;7150;53.514;9.988;2022-12-10T08:27:24;8.63;;;5.00;;
14139;SDS011;7150;53.514;9.988;2022-12-10T08:29:50;8.33;;;5.17;;
14139;SDS011;7150;53.514;9.988;2022-12-10T08:32:16;8.97;;;4.80;;
14139;SDS011;7150;53.514;9.988;2022-12-10T08:34:41;9.43;;;5.87;;
14139;SDS011;7150;53.514;9.988;2022-12-10T08:37:06;8.87;;;4.70;;
14139;SDS011;7150;53.514;9.988;2022-12-10T08:39:32;9.00;;;5.63;;
14139;SDS011;7150;53.514;9.988;2022-12-10T08:41:58;8.73;;;5.50;;
14139;SDS011;7150;53.514;9.988;2022-12-10T08:44:23;9.60;;;5.97;;
14139;SDS011;7150;53.514;9.988;2022-12-10T08:46:49;8.33;;;5.50;;
14139;SDS011;7150;53.514;9.988;2022-12-10T08:49:15;9.00;;;5.30;;
14139;SDS011;7150;53.514;9.988;2022-12-10T08:51:40;9.70;;;5.30;;
14139;SDS011;7150;53.514;9.988;2022-12-10T08:54:06;10.07;;;5.23;;
14139;SDS011;7150;53.514;9.988;2022-12-10T08:56:31;8.93;;;4.77;;
14139;SDS011;7150;53.514;9.988;2022-12-10T08:58:57;7.73;;;4.43;;
14139;SDS011;7150;53.514;9.988;2022-12-10T09:01:23;6.77;;;4.40;;
14139;SDS011;7150;53.514;9.988;2022-12-10T09:03:48;10.00;;;5.63;;
14139;SDS011;7150;53.514;9.988;2022-12-10T09:06:15;8.60;;;5.20;;
14139;SDS011;7150;53.514;9.988;2022-12-10T09:08:43;7.23;;;4.43;;
14139;SDS011;7150;53.514;9.988;2022-12-10T09:11:09;7.83;;;4.83;;
14139;SDS011;7150;53.514;9.988;2022-12-10T09:13:57;9.48;;;5.18;;
14139;SDS011;7150;53.514;9.988;2022-12-10T09:16:30;11.88;;;5.47;;
14139;SDS011;7150;53.514;9.988;2022-12-10T09:18:59;8.13;;;4.87;;
14139;SDS011;7150;53.514;9.988;2022-12-10T09:21:25;7.38;;;4.78;;
14139;SDS011;7150;53.514;9.988;2022-12-10T09:23:51;10.27;;;5.53;;
14139;SDS011;7150;53.514;9.988;2022-12-10T09:26:17;7.93;;;5.00;;
14139;SDS011;7150;53.514;9.988;2022-12-10T09:28:43;8.40;;;5.37;;
14139;SDS011;7150;53.514;9.988;2022-12-10T09:31:11;7.90;;;4.30;;
14139;SDS011;7150;53.514;9.988;2022-12-10T09:33:37;6.97;;;4.63;;
14139;SDS011;7150;53.514;9.988;2022-12-10T09:36:04;7.77;;;4.47;;
14139;SDS011;7150;53.514;9.988;2022-12-10T09:38:33;7.80;;;4.00;;
14139;SDS011;7150;53.514;9.988;2022-12-10T09:41:00;10.27;;;5.27;;
14139;SDS011;7150;53.514;9.988;2022-12-10T09:46:17;7.97;;;4.73;;
14139;SDS011;7150;53.514;9.988;2022-12-10T09:51:47;6.85;;;4.50;;
14139;SDS011;7150;53.514;9.988;2022-12-10T09:54:24;7.63;;;4.63;;
14139;SDS011;7150;53.514;9.988;2022-12-10T09:56:53;7.32;;;4.90;;
14139;SDS011;7150;53.514;9.988;2022-12-10T09:59:22;10.68;;;4.82;;
14139;SDS011;7150;53.514;9.988;2022-12-10T10:05:39;8.13;;;4.72;;
14139;SDS011;7150;53.514;9.988;2022-12-10T10:07:48;8.37;;;4.97;;
14139;SDS011;7150;53.514;9.988;2022-12-10T10:12:51;7.13;;;4.40;;
14139;SDS011;7150;53.514;9.988;2022-12-10T10:15:22;9.63;;;5.03;;
14139;SDS011;7150;53.514;9.988;2022-12-10T10:17:53;8.33;;;4.93;;
14139;SDS011;7150;53.514;9.988;2022-12-10T10:20:20;8.90;;;4.73;;
14139;SDS011;7150;53.514;9.988;2022-12-10T10:22:46;8.57;;;5.30;;
14139;SDS011;7150;53.514;9.988;2022-12-10T10:25:15;8.77;;;5.00;;
14139;SDS011;7150;53.514;9.988;2022-12-10T10:27:42;8.80;;;5.10;;
14139;SDS011;7150;53.514;9.988;2022-12-10T10:30:16;10.20;;;5.73;;
14139;SDS011;7150;53.514;9.988;2022-12-10T10:32:45;7.10;;;4.63;;
14139;SDS011;7150;53.514;9.988;2022-12-10T10:36:04;8.00;;;5.07;;
14139;SDS011;7150;53.514;9.988;2022-12-10T10:38:15;7.67;;;4.83;;
14139;SDS011;7150;53.514;9.988;2022-12-10T10:41:11;8.40;;;4.70;;
14139;SDS011;7150;53.514;9.988;2022-12-10T10:43:40;8.40;;;5.30;;
14139;SDS011;7150;53.514;9.988;2022-12-10T10:46:12;8.53;;;5.43;;
14139;SDS011;7150;53.514;9.988;2022-12-10T10:48:42;9.07;;;5.23;;
14139;SDS011;7150;53.514;9.988;2022-12-10T10:53:46;9.05;;;5.45;;
14139;SDS011;7150;53.514;9.988;2022-12-10T10:56:16;9.77;;;5.33;;
14139;SDS011;7150;53.514;9.988;2022-12-10T10:59:22;8.80;;;5.33;;
14139;SDS011;7150;53.514;9.988;2022-12-10T11:02:01;10.10;;;5.50;;
14139;SDS011;7150;53.514;9.988;2022-12-10T11:04:48;10.93;;;5.60;;
14139;SDS011;7150;53.514;9.988;2022-12-10T11:07:20;10.97;;;6.50;;
14139;SDS011;7150;53.514;9.988;2022-12-10T11:10:00;10.67;;;5.90;;
14139;SDS011;7150;53.514;9.988;2022-12-10T11:15:02;11.63;;;6.05;;
14139;SDS011;7150;53.514;9.988;2022-12-10T11:17:54;9.07;;;5.70;;
14139;SDS011;7150;53.514;9.988;2022-12-10T11:20:22;9.20;;;5.80;;
14139;SDS011;7150;53.514;9.988;2022-12-10T11:22:50;11.27;;;6.20;;
14139;SDS011;7150;53.514;9.988;2022-12-10T11:25:26;9.70;;;5.85;;
14139;SDS011;7150;53.514;9.988;2022-12-10T11:28:32;12.93;;;6.37;;
14139;SDS011;7150;53.514;9.988;2022-12-10T11:31:33;10.53;;;6.20;;
14139;SDS011;7150;53.514;9.988;2022-12-10T11:39:51;9.70;;;5.97;;
14139;SDS011;7150;53.514;9.988;2022-12-10T11:42:23;13.20;;;6.35;;
14139;SDS011;7150;53.514;9.988;2022-12-10T11:45:15;14.15;;;6.20;;
14139;SDS011;7150;53.514;9.988;2022-12-10T11:47:50;10.53;;;5.70;;
14139;SDS011;7150;53.514;9.988;2022-12-10T11:53:50;16.85;;;7.03;;
14139;SDS011;7150;53.514;9.988;2022-12-10T11:56:26;11.27;;;5.80;;
14139;SDS011;7150;53.514;9.988;2022-12-10T12:04:42;12.00;;;6.20;;
14139;SDS011;7150;53.514;9.988;2022-12-10T12:13:52;10.13;;;6.40;;
14139;SDS011;7150;53.514;9.988;2022-12-10T12:16:35;10.70;;;6.75;;
14139;SDS011;7150;53.514;9.988;2022-12-10T12:19:12;12.43;;;6.87;;
14139;SDS011;7150;53.514;9.988;2022-12-10T12:21:41;12.35;;;6.10;;
14139;SDS011;7150;53.514;9.988;2022-12-10T12:24:12;12.63;;;7.20;;
14139;SDS011;7150;53.514;9.988;2022-12-10T12:26:52;11.60;;;7.10;;
14139;SDS011;7150;53.514;9.988;2022-12-10T12:29:30;12.97;;;7.03;;
14139;SDS011;7150;53.514;9.988;2022-12-10T12:34:53;11.73;;;6.50;;
14139;SDS011;7150;53.514;9.988;2022-12-10T12:42:52;11.23;;;6.37;;
14139;SDS011;7150;53.514;9.988;2022-12-10T12:45:41;10.60;;;6.50;;
14139;SDS011;7150;53.514;9.988;2022-12-10T12:48:16;12.30;;;7.05;;
14139;SDS011;7150;53.514;9.988;2022-12-10T12:53:14;12.68;;;6.65;;
14139;SDS011;7150;53.514;9.988;2022-12-10T13:01:42;10.73;;;6.37;;
14139;SDS011;7150;53.514;9.988;2022-12-10T13:04:18;10.63;;;6.23;;
14139;SDS011;7150;53.514;9.988;2022-12-10T13:06:44;10.83;;;6.70;;
14139;SDS011;7150;53.514;9.988;2022-12-10T13:09:45;13.43;;;6.60;;
14139;SDS011;7150;53.514;9.988;2022-12-10T13:12:16;13.10;;;6.93;;
14139;SDS011;7150;53.514;9.988;2022-12-10T13:14:55;11.77;;;6.57;;
14139;SDS011;7150;53.514;9.988;2022-12-10T13:17:32;10.93;;;6.53;;
14139;SDS011;7150;53.514;9.988;2022-12-10T13:25:40;11.10;;;6.33;;
14139;SDS011;7150;53.514;9.988;2022-12-10T13:28:21;15.90;;;7.67;;
14139;SDS011;7150;53.514;9.988;2022-12-10T13:31:16;13.80;;;6.80;;
14139;SDS011;7150;53.514;9.988;2022-12-10T13:33:46;15.03;;;7.70;;
14139;SDS011;7150;53.514;9.988;2022-12-10T13:36:26;13.77;;;7.17;;
14139;SDS011;7150;53.514;9.988;2022-12-10T13:41:27;11.40;;;7.07;;
14139;SDS011;7150;53.514;9.988;2022-12-10T13:49:44;12.47;;;6.73;;
14139;SDS011;7150;53.514;9.988;2022-12-10T13:52:23;12.25;;;6.38;;
14139;SDS011;7150;53.514;9.988;2022-12-10T13:54:58;13.77;;;6.80;;
14139;SDS011;7150;53.514;9.988;2022-12-10T14:00:14;14.55;;;7.50;;
14139;SDS011;7150;53.514;9.988;2022-12-10T14:02:50;12.47;;;7.27;;
14139;SDS011;7150;53.514;9.988;2022-12-10T14:08:13;12.43;;;6.63;;
14139;SDS011;7150;53.514;9.988;2022-12-10T14:10:46;12.73;;;7.00;;
14139;SDS011;7150;53.514;9.988;2022-12-10T14:13:13;13.37;;;6.83;;
14139;SDS011;7150;53.514;9.988;2022-12-10T14:15:41;11.67;;;6.70;;
14139;SDS011;7150;53.514;9.988;2022-12-10T14:18:16;13.57;;;6.73;;
14139;SDS011;7150;53.514;9.988;2022-12-10T14:20:44;12.00;;;6.80;;
14139;SDS011;7150;53.514;9.988;2022-12-10T14:25:57;11.97;;;6.17;;
14139;SDS011;7150;53.514;9.988;2022-12-10T14:28:29;12.18;;;6.43;;
14139;SDS011;7150;53.514;9.988;2022-12-10T14:30:55;11.23;;;6.80;;
14139;SDS011;7150;53.514;9.988;2022-12-10T14:33:21;11.10;;;6.37;;
14139;SDS011;7150;53.514;9.988;2022-12-10T14:35:49;12.00;;;6.80;;
14139;SDS011;7150;53.514;9.988;2022-12-10T14:38:19;12.73;;;6.87;;
14139;SDS011;7150;53.514;9.988;2022-12-10T14:40:52;12.27;;;7.00;;
14139;SDS011;7150;53.514;9.988;2022-12-10T14:43:20;12.77;;;7.18;;
14139;SDS011;7150;53.514;9.988;2022-12-10T14:45:50;12.63;;;7.03;;
14139;SDS011;7150;53.514;9.988;2022-12-10T14:48:21;14.00;;;7.33;;
14139;SDS011;7150;53.514;9.988;2022-12-10T14:50:47;13.77;;;7.57;;
14139;SDS011;7150;53.514;9.988;2022-12-10T14:53:26;13.63;;;7.80;;
14139;SDS011;7150;53.514;9.988;2022-12-10T14:55:54;13.88;;;7.75;;
14139;SDS011;7150;53.514;9.988;2022-12-10T14:58:27;13.57;;;7.67;;
14139;SDS011;7150;53.514;9.988;2022-12-10T15:01:06;12.73;;;7.45;;
14139;SDS011;7150;53.514;9.988;2022-12-10T15:03:40;12.13;;;7.03;;
14139;SDS011;7150;53.514;9.988;2022-12-10T15:06:12;11.83;;;6.83;;
14139;SDS011;7150;53.514;9.988;2022-12-10T15:08:42;12.98;;;8.27;;
14139;SDS011;7150;53.514;9.988;2022-12-10T15:11:10;14.25;;;7.05;;
14139;SDS011;7150;53.514;9.988;2022-12-10T15:13:42;15.02;;;8.07;;
14139;SDS011;7150;53.514;9.988;2022-12-10T15:16:29;14.50;;;8.07;;
14139;SDS011;7150;53.514;9.988;2022-12-10T15:19:06;13.75;;;7.63;;
14139;SDS011;7150;53.514;9.988;2022-12-10T15:21:33;13.65;;;7.63;;
14139;SDS011;7150;53.514;9.988;2022-12-10T15:24:11;14.18;;;7.63;;
14139;SDS011;7150;53.514;9.988;2022-12-10T15:26:42;14.30;;;7.43;;
14139;SDS011;7150;53.514;9.988;2022-12-10T15:31:50;11.83;;;7.23;;
14139;SDS011;7150;53.514;9.988;2022-12-10T15:34:20;16.05;;;7.13;;
14139;SDS011;7150;53.514;9.988;2022-12-10T15:36:50;15.33;;;8.10;;
14139;SDS011;7150;53.514;9.988;2022-12-10T15:39:20;16.40;;;8.70;;
14139;SDS011;7150;53.514;9.988;2022-12-10T15:49:51;14.47;;;6.77;;
14139;SDS011;7150;53.514;9.988;2022-12-10T15:52:27;12.77;;;7.72;;
14139;SDS011;7150;53.514;9.988;2022-12-10T15:54:54;13.13;;;7.45;;
14139;SDS011;7150;53.514;9.988;2022-12-10T15:57:31;13.02;;;6.95;;
14139;SDS011;7150;53.514;9.988;2022-12-10T16:00:05;13.83;;;7.20;;
14139;SDS011;7150;53.514;9.988;2022-12-10T16:02:37;13.25;;;7.13;;
14139;SDS011;7150;53.514;9.988;2022-12-10T16:05:19;13.67;;;7.17;;
14139;SDS011;7150;53.514;9.988;2022-12-10T16:07:56;16.23;;;8.03;;
14139;SDS011;7150;53.514;9.988;2022-12-10T16:10:27;16.47;;;7.57;;
14139;SDS011;7150;53.514;9.988;2022-12-10T16:13:03;15.13;;;7.93;;
14139;SDS011;7150;53.514;9.988;2022-12-10T16:15:42;11.93;;;6.50;;
14139;SDS011;7150;53.514;9.988;2022-12-10T16:18:14;13.30;;;6.50;;
14139;SDS011;7150;53.514;9.988;2022-12-10T16:20:39;14.87;;;7.17;;
14139;SDS011;7150;53.514;9.988;2022-12-10T16:23:05;13.13;;;6.70;;
14139;SDS011;7150;53.514;9.988;2022-12-10T16:25:31;14.00;;;7.03;;
14139;SDS011;7150;53.514;9.988;2022-12-10T16:27:58;11.90;;;7.03;;
14139;SDS011;7150;53.514;9.988;2022-12-10T16:33:00;15.20;;;7.90;;
14139;SDS011;7150;53.514;9.988;2022-12-10T16:35:26;14.97;;;7.63;;
14139;SDS011;7150;53.514;9.988;2022-12-10T16:37:52;14.07;;;7.47;;
14139;SDS011;7150;53.514;9.988;2022-12-10T16:40:20;14.27;;;7.80;;
14139;SDS011;7150;53.514;9.988;2022-12-10T16:42:49;16.58;;;8.13;;
14139;SDS011;7150;53.514;9.988;2022-12-10T16:45:17;18.20;;;9.97;;
14139;SDS011;7150;53.514;9.988;2022-12-10T16:47:46;15.13;;;8.60;;
14139;SDS011;7150;53.514;9.988;2022-12-10T16:50:12;17.47;;;9.47;;
14139;SDS011;7150;53.514;9.988;2022-12-10T16:52:39;17.30;;;8.33;;
14139;SDS011;7150;53.514;9.988;2022-12-10T16:55:05;14.37;;;8.70;;